sensor_id;sensor_type;location;lat;lon;timestamp;temperature;humidity
16136;DHT22;8173;48.354;9.248;2022-10-04T00:02:05;3.40;99.90
16136;DHT22;8173;48.354;9.248;2022-10-04T00:04:44;2.70;99.90
16136;DHT22;8173;48.354;9.248;2022-10-04T00:07:16;2.60;99.90
16136;DHT22;8173;48.354;9.248;2022-10-04T00:09:47;2.60;99.90
16136;DHT22;8173;48.354;9.248;2022-10-04T00:12:18;2.60;99.90
16136;DHT22;8173;48.354;9.248;2022-10-04T00:14:45;2.50;99.90
16136;DHT22;8173;48.354;9.248;2022-10-04T00:17:21;2.30;99.90
16136;DHT22;8173;48.354;9.248;2022-10-04T00:19:49;2.40;99.90
16136;DHT22;8173;48.354;9.248;2022-10-04T00:22:22;2.40;99.90
16136;DHT22;8173;48.354;9.248;2022-10-04T00:25:21;2.30;99.90
16136;DHT22;8173;48.354;9.248;2022-10-04T00:28:30;2.30;99.90
16136;DHT22;8173;48.354;9.248;2022-10-04T00:31:21;2.20;99.90
16136;DHT22;8173;48.354;9.248;2022-10-04T00:33:55;2.30;99.90
16136;DHT22;8173;48.354;9.248;2022-10-04T00:36:52;2.20;99.90
16136;DHT22;8173;48.354;9.248;2022-10-04T00:39:36;2.20;99.90
16136;DHT22;8173;48.354;9.248;2022-10-04T00:42:16;2.20;99.90
16136;DHT22;8173;48.354;9.248;2022-10-04T00:44:48;2.00;99.90
16136;DHT22;8173;48.354;9.248;2022-10-04T00:47:22;2.00;99.90
16136;DHT22;8173;48.354;9.248;2022-10-04T00:49:54;2.00;99.90
16136;DHT22;8173;48.354;9.248;2022-10-04T00:52:26;1.90;99.90
16136;DHT22;8173;48.354;9.248;2022-10-04T00:54:57;1.90;99.90
16136;DHT22;8173;48.354;9.248;2022-10-04T00:57:28;1.90;99.90
16136;DHT22;8173;48.354;9.248;2022-10-04T01:00:00;1.80;99.90
16136;DHT22;8173;48.354;9.248;2022-10-04T01:02:32;1.80;99.90
16136;DHT22;8173;48.354;9.248;2022-10-04T01:05:03;1.90;99.90
16136;DHT22;8173;48.354;9.248;2022-10-04T01:07:33;1.90;99.90
16136;DHT22;8173;48.354;9.248;2022-10-04T01:10:07;2.00;99.90
16136;DHT22;8173;48.354;9.248;2022-10-04T01:12:42;2.00;99.90
16136;DHT22;8173;48.354;9.248;2022-10-04T01:15:14;2.10;99.90
16136;DHT22;8173;48.354;9.248;2022-10-04T01:18:07;2.00;99.90
16136;DHT22;8173;48.354;9.248;2022-10-04T01:20:38;2.10;99.90
16136;DHT22;8173;48.354;9.248;2022-10-04T01:23:08;2.10;99.90
16136;DHT22;8173;48.354;9.248;2022-10-04T01:25:43;2.00;99.90
16136;DHT22;8173;48.354;9.248;2022-10-04T01:28:11;2.00;99.90
16136;DHT22;8173;48.354;9.248;2022-10-04T01:30:38;1.90;99.90
16136;DHT22;8173;48.354;9.248;2022-10-04T01:33:05;1.90;99.90
16136;DHT22;8173;48.354;9.248;2022-10-04T01:35:32;1.90;99.90
16136;DHT22;8173;48.354;9.248;2022-10-04T01:38:01;1.90;99.90
16136;DHT22;8173;48.354;9.248;2022-10-04T01:40:30;1.80;99.90
16136;DHT22;8173;48.354;9.248;2022-10-04T01:43:01;1.80;99.90
16136;DHT22;8173;48.354;9.248;2022-10-04T01:45:35;1.80;99.90
16136;DHT22;8173;48.354;9.248;2022-10-04T01:48:07;1.80;99.90
16136;DHT22;8173;48.354;9.248;2022-10-04T01:50:40;1.80;99.90
16136;DHT22;8173;48.354;9.248;2022-10-04T01:53:13;1.80;99.90
16136;DHT22;8173;48.354;9.248;2022-10-04T01:55:45;1.80;99.90
16136;DHT22;8173;48.354;9.248;2022-10-04T01:58:16;1.70;99.90
16136;DHT22;8173;48.354;9.248;2022-10-04T02:00:49;1.70;99.90
16136;DHT22;8173;48.354;9.248;2022-10-04T02:03:21;1.60;99.90
16136;DHT22;8173;48.354;9.248;2022-10-04T02:05:56;1.60;99.90
16136;DHT22;8173;48.354;9.248;2022-10-04T02:08:26;1.50;99.90
16136;DHT22;8173;48.354;9.248;2022-10-04T02:10:57;1.50;99.90
16136;DHT22;8173;48.354;9.248;2022-10-04T02:13:26;1.40;99.90
16136;DHT22;8173;48.354;9.248;2022-10-04T02:15:55;1.40;99.90
16136;DHT22;8173;48.354;9.248;2022-10-04T02:18:23;1.40;99.90
16136;DHT22;8173;48.354;9.248;2022-10-04T02:20:51;1.40;99.90
16136;DHT22;8173;48.354;9.248;2022-10-04T02:23:21;1.50;99.90
16136;DHT22;8173;48.354;9.248;2022-10-04T02:25:48;1.50;99.90
16136;DHT22;8173;48.354;9.248;2022-10-04T02:28:17;1.50;99.90
16136;DHT22;8173;48.354;9.248;2022-10-04T02:30:47;1.50;99.90
16136;DHT22;8173;48.354;9.248;2022-10-04T02:33:29;1.30;99.90
16136;DHT22;8173;48.354;9.248;2022-10-04T02:35:57;1.30;99.90
16136;DHT22;8173;48.354;9.248;2022-10-04T02:38:27;1.20;99.90
16136;DHT22;8173;48.354;9.248;2022-10-04T02:40:58;1.20;99.90
16136;DHT22;8173;48.354;9.248;2022-10-04T02:43:34;1.10;99.90
16136;DHT22;8173;48.354;9.248;2022-10-04T02:46:08;1.10;99.90
16136;DHT22;8173;48.354;9.248;2022-10-04T02:48:43;1.10;99.90
16136;DHT22;8173;48.354;9.248;2022-10-04T02:51:18;1.10;99.90
16136;DHT22;8173;48.354;9.248;2022-10-04T02:53:51;1.10;99.90
16136;DHT22;8173;48.354;9.248;2022-10-04T02:56:23;1.10;99.90
16136;DHT22;8173;48.354;9.248;2022-10-04T02:58:52;1.10;99.90
16136;DHT22;8173;48.354;9.248;2022-10-04T03:01:25;1.10;99.90
16136;DHT22;8173;48.354;9.248;2022-10-04T03:03:54;1.20;99.90
16136;DHT22;8173;48.354;9.248;2022-10-04T03:06:22;1.30;99.90
16136;DHT22;8173;48.354;9.248;2022-10-04T03:08:55;1.40;99.90
16136;DHT22;8173;48.354;9.248;2022-10-04T03:11:27;1.30;99.90
16136;DHT22;8173;48.354;9.248;2022-10-04T03:13:59;1.20;99.90
16136;DHT22;8173;48.354;9.248;2022-10-04T03:16:33;1.10;99.90
16136;DHT22;8173;48.354;9.248;2022-10-04T03:19:01;1.10;99.90
16136;DHT22;8173;48.354;9.248;2022-10-04T03:21:30;1.10;99.90
16136;DHT22;8173;48.354;9.248;2022-10-04T03:23:57;1.10;99.90
16136;DHT22;8173;48.354;9.248;2022-10-04T03:26:28;1.10;99.90
16136;DHT22;8173;48.354;9.248;2022-10-04T03:28:59;1.10;99.90
16136;DHT22;8173;48.354;9.248;2022-10-04T03:31:26;1.10;99.90
16136;DHT22;8173;48.354;9.248;2022-10-04T03:33:54;1.10;99.90
16136;DHT22;8173;48.354;9.248;2022-10-04T03:36:23;1.10;99.90
16136;DHT22;8173;48.354;9.248;2022-10-04T03:38:52;1.20;99.90
16136;DHT22;8173;48.354;9.248;2022-10-04T03:41:22;1.20;99.90
16136;DHT22;8173;48.354;9.248;2022-10-04T03:43:50;1.20;99.90
16136;DHT22;8173;48.354;9.248;2022-10-04T03:46:22;1.30;99.90
16136;DHT22;8173;48.354;9.248;2022-10-04T03:48:51;1.30;99.90
16136;DHT22;8173;48.354;9.248;2022-10-04T03:51:21;1.40;99.90
16136;DHT22;8173;48.354;9.248;2022-10-04T03:53:50;1.40;99.90
16136;DHT22;8173;48.354;9.248;2022-10-04T03:56:20;1.40;99.90
16136;DHT22;8173;48.354;9.248;2022-10-04T03:58:49;1.30;99.90
16136;DHT22;8173;48.354;9.248;2022-10-04T04:01:25;1.20;99.90
16136;DHT22;8173;48.354;9.248;2022-10-04T04:04:01;1.20;99.90
16136;DHT22;8173;48.354;9.248;2022-10-04T04:06:36;1.10;99.90
16136;DHT22;8173;48.354;9.248;2022-10-04T04:09:06;1.20;99.90
16136;DHT22;8173;48.354;9.248;2022-10-04T04:11:34;1.20;99.90
16136;DHT22;8173;48.354;9.248;2022-10-04T04:14:05;1.20;99.90
16136;DHT22;8173;48.354;9.248;2022-10-04T04:16:37;1.30;99.90
16136;DHT22;8173;48.354;9.248;2022-10-04T04:19:11;1.30;99.90
16136;DHT22;8173;48.354;9.248;2022-10-04T04:21:39;1.30;99.90
16136;DHT22;8173;48.354;9.248;2022-10-04T04:24:14;1.20;99.90
16136;DHT22;8173;48.354;9.248;2022-10-04T04:26:44;1.10;99.90
16136;DHT22;8173;48.354;9.248;2022-10-04T04:29:17;1.10;99.90
16136;DHT22;8173;48.354;9.248;2022-10-04T04:31:51;1.10;99.90
16136;DHT22;8173;48.354;9.248;2022-10-04T04:34:22;1.10;99.90
16136;DHT22;8173;48.354;9.248;2022-10-04T04:36:50;1.10;99.90
16136;DHT22;8173;48.354;9.248;2022-10-04T04:39:21;1.10;99.90
16136;DHT22;8173;48.354;9.248;2022-10-04T04:42:05;1.10;99.90
16136;DHT22;8173;48.354;9.248;2022-10-04T04:44:32;1.20;99.90
16136;DHT22;8173;48.354;9.248;2022-10-04T04:47:05;1.10;99.90
16136;DHT22;8173;48.354;9.248;2022-10-04T04:49:37;1.20;99.90
16136;DHT22;8173;48.354;9.248;2022-10-04T04:52:11;1.20;99.90
16136;DHT22;8173;48.354;9.248;2022-10-04T04:54:41;1.20;99.90
16136;DHT22;8173;48.354;9.248;2022-10-04T04:57:14;1.20;99.90
16136;DHT22;8173;48.354;9.248;2022-10-04T04:59:44;1.20;99.90
16136;DHT22;8173;48.354;9.248;2022-10-04T05:02:29;1.20;99.90
16136;DHT22;8173;48.354;9.248;2022-10-04T05:05:16;1.30;99.90
16136;DHT22;8173;48.354;9.248;2022-10-04T05:07:43;1.40;99.90
16136;DHT22;8173;48.354;9.248;2022-10-04T05:10:31;1.40;99.90
16136;DHT22;8173;48.354;9.248;2022-10-04T05:12:59;1.50;99.90
16136;DHT22;8173;48.354;9.248;2022-10-04T05:15:30;1.50;99.90
16136;DHT22;8173;48.354;9.248;2022-10-04T05:17:59;1.50;99.90
16136;DHT22;8173;48.354;9.248;2022-10-04T05:20:26;1.50;99.90
16136;DHT22;8173;48.354;9.248;2022-10-04T05:22:54;1.50;99.90
16136;DHT22;8173;48.354;9.248;2022-10-04T05:25:26;1.50;99.90
16136;DHT22;8173;48.354;9.248;2022-10-04T05:27:55;1.50;99.90
16136;DHT22;8173;48.354;9.248;2022-10-04T05:30:42;1.40;99.90
16136;DHT22;8173;48.354;9.248;2022-10-04T05:33:21;1.30;99.90
16136;DHT22;8173;48.354;9.248;2022-10-04T05:36:01;1.20;99.90
16136;DHT22;8173;48.354;9.248;2022-10-04T05:38:36;1.30;99.90
16136;DHT22;8173;48.354;9.248;2022-10-04T05:41:07;1.50;99.90
16136;DHT22;8173;48.354;9.248;2022-10-04T05:43:37;1.60;99.90
16136;DHT22;8173;48.354;9.248;2022-10-04T05:46:17;1.50;99.90
16136;DHT22;8173;48.354;9.248;2022-10-04T05:48:50;1.60;99.90
16136;DHT22;8173;48.354;9.248;2022-10-04T05:51:19;1.60;99.90
16136;DHT22;8173;48.354;9.248;2022-10-04T05:56:40;1.70;99.90
16136;DHT22;8173;48.354;9.248;2022-10-04T05:59:27;1.70;99.90
16136;DHT22;8173;48.354;9.248;2022-10-04T06:02:06;1.80;99.90
16136;DHT22;8173;48.354;9.248;2022-10-04T06:04:57;1.90;99.90
16136;DHT22;8173;48.354;9.248;2022-10-04T06:07:29;2.00;99.90
16136;DHT22;8173;48.354;9.248;2022-10-04T06:10:22;2.00;99.90
16136;DHT22;8173;48.354;9.248;2022-10-04T06:12:56;2.10;99.90
16136;DHT22;8173;48.354;9.248;2022-10-04T06:15:39;2.10;99.90
16136;DHT22;8173;48.354;9.248;2022-10-04T06:18:29;2.20;99.90
16136;DHT22;8173;48.354;9.248;2022-10-04T06:21:18;2.30;99.90
16136;DHT22;8173;48.354;9.248;2022-10-04T06:23:53;2.50;99.90
16136;DHT22;8173;48.354;9.248;2022-10-04T06:26:24;2.60;99.90
16136;DHT22;8173;48.354;9.248;2022-10-04T06:28:57;2.90;99.90
16136;DHT22;8173;48.354;9.248;2022-10-04T06:31:54;3.10;99.90
16136;DHT22;8173;48.354;9.248;2022-10-04T06:34:38;3.40;99.90
16136;DHT22;8173;48.354;9.248;2022-10-04T06:37:21;3.70;99.90
16136;DHT22;8173;48.354;9.248;2022-10-04T06:40:21;4.10;99.90
16136;DHT22;8173;48.354;9.248;2022-10-04T06:43:09;4.10;99.90
16136;DHT22;8173;48.354;9.248;2022-10-04T06:45:56;3.90;99.90
16136;DHT22;8173;48.354;9.248;2022-10-04T06:48:56;3.70;99.90
16136;DHT22;8173;48.354;9.248;2022-10-04T06:51:39;3.60;99.90
16136;DHT22;8173;48.354;9.248;2022-10-04T06:54:26;3.50;99.90
16136;DHT22;8173;48.354;9.248;2022-10-04T06:57:14;3.60;99.90
16136;DHT22;8173;48.354;9.248;2022-10-04T07:00:00;3.70;99.90
16136;DHT22;8173;48.354;9.248;2022-10-04T07:02:31;3.70;99.90
16136;DHT22;8173;48.354;9.248;2022-10-04T07:05:02;3.90;99.90
16136;DHT22;8173;48.354;9.248;2022-10-04T07:07:32;4.10;99.90
16136;DHT22;8173;48.354;9.248;2022-10-04T07:10:13;4.20;99.90
16136;DHT22;8173;48.354;9.248;2022-10-04T07:12:46;4.50;99.90
16136;DHT22;8173;48.354;9.248;2022-10-04T07:15:18;4.70;99.90
16136;DHT22;8173;48.354;9.248;2022-10-04T07:17:48;4.90;99.90
16136;DHT22;8173;48.354;9.248;2022-10-04T07:20:19;5.10;99.90
16136;DHT22;8173;48.354;9.248;2022-10-04T07:22:50;5.40;99.90
16136;DHT22;8173;48.354;9.248;2022-10-04T07:25:23;5.50;99.90
16136;DHT22;8173;48.354;9.248;2022-10-04T07:27:55;5.60;99.90
16136;DHT22;8173;48.354;9.248;2022-10-04T07:30:42;5.70;99.90
16136;DHT22;8173;48.354;9.248;2022-10-04T07:33:15;5.70;99.90
16136;DHT22;8173;48.354;9.248;2022-10-04T07:35:44;5.80;99.90
16136;DHT22;8173;48.354;9.248;2022-10-04T07:38:17;5.90;99.90
16136;DHT22;8173;48.354;9.248;2022-10-04T07:40:57;5.90;99.90
16136;DHT22;8173;48.354;9.248;2022-10-04T07:43:29;6.00;99.90
16136;DHT22;8173;48.354;9.248;2022-10-04T07:46:02;6.00;99.90
16136;DHT22;8173;48.354;9.248;2022-10-04T07:48:30;6.00;99.90
16136;DHT22;8173;48.354;9.248;2022-10-04T07:51:01;6.10;99.90
16136;DHT22;8173;48.354;9.248;2022-10-04T07:53:39;6.20;99.90
16136;DHT22;8173;48.354;9.248;2022-10-04T07:56:11;6.30;99.90
16136;DHT22;8173;48.354;9.248;2022-10-04T07:58:47;6.40;99.90
16136;DHT22;8173;48.354;9.248;2022-10-04T08:01:21;6.60;99.90
16136;DHT22;8173;48.354;9.248;2022-10-04T08:04:04;6.80;99.90
16136;DHT22;8173;48.354;9.248;2022-10-04T08:06:34;7.10;99.90
16136;DHT22;8173;48.354;9.248;2022-10-04T08:12:04;7.80;99.90
16136;DHT22;8173;48.354;9.248;2022-10-04T08:14:53;8.40;99.90
16136;DHT22;8173;48.354;9.248;2022-10-04T08:17:37;8.90;99.90
16136;DHT22;8173;48.354;9.248;2022-10-04T08:20:20;9.30;99.90
16136;DHT22;8173;48.354;9.248;2022-10-04T08:23:00;9.40;99.90
16136;DHT22;8173;48.354;9.248;2022-10-04T08:25:36;9.40;99.90
16136;DHT22;8173;48.354;9.248;2022-10-04T08:28:19;9.60;99.90
16136;DHT22;8173;48.354;9.248;2022-10-04T08:31:20;9.60;99.90
16136;DHT22;8173;48.354;9.248;2022-10-04T08:34:02;9.80;99.90
16136;DHT22;8173;48.354;9.248;2022-10-04T08:36:51;9.80;99.90
16136;DHT22;8173;48.354;9.248;2022-10-04T08:39:32;10.10;99.90
16136;DHT22;8173;48.354;9.248;2022-10-04T08:42:34;10.40;99.90
16136;DHT22;8173;48.354;9.248;2022-10-04T08:55:19;12.10;99.90
16136;DHT22;8173;48.354;9.248;2022-10-04T08:58:04;12.10;99.90
16136;DHT22;8173;48.354;9.248;2022-10-04T09:00:48;12.20;99.90
16136;DHT22;8173;48.354;9.248;2022-10-04T09:04:02;12.50;99.90
16136;DHT22;8173;48.354;9.248;2022-10-04T09:06:51;12.70;99.90
16136;DHT22;8173;48.354;9.248;2022-10-04T09:09:43;12.70;99.90
16136;DHT22;8173;48.354;9.248;2022-10-04T09:15:23;12.70;99.90
16136;DHT22;8173;48.354;9.248;2022-10-04T09:18:00;12.70;99.90
16136;DHT22;8173;48.354;9.248;2022-10-04T09:20:46;12.70;99.90
16136;DHT22;8173;48.354;9.248;2022-10-04T09:23:38;12.70;99.90
16136;DHT22;8173;48.354;9.248;2022-10-04T09:26:19;12.60;99.90
16136;DHT22;8173;48.354;9.248;2022-10-04T09:29:20;12.60;99.90
16136;DHT22;8173;48.354;9.248;2022-10-04T09:38:04;14.30;99.90
16136;DHT22;8173;48.354;9.248;2022-10-04T09:41:00;14.60;99.90
16136;DHT22;8173;48.354;9.248;2022-10-04T09:46:54;14.90;99.90
16136;DHT22;8173;48.354;9.248;2022-10-04T09:49:47;14.90;99.90
16136;DHT22;8173;48.354;9.248;2022-10-04T09:52:30;15.60;99.90
16136;DHT22;8173;48.354;9.248;2022-10-04T09:55:23;15.70;99.90
16136;DHT22;8173;48.354;9.248;2022-10-04T09:58:11;15.90;99.90
16136;DHT22;8173;48.354;9.248;2022-10-04T10:00:45;15.90;99.90
16136;DHT22;8173;48.354;9.248;2022-10-04T10:03:42;16.10;99.90
16136;DHT22;8173;48.354;9.248;2022-10-04T10:06:28;16.20;99.90
16136;DHT22;8173;48.354;9.248;2022-10-04T10:09:10;16.80;99.90
16136;DHT22;8173;48.354;9.248;2022-10-04T10:11:51;16.70;99.90
16136;DHT22;8173;48.354;9.248;2022-10-04T10:14:54;16.60;99.90
16136;DHT22;8173;48.354;9.248;2022-10-04T10:17:31;16.00;99.90
16136;DHT22;8173;48.354;9.248;2022-10-04T10:20:21;15.50;99.90
16136;DHT22;8173;48.354;9.248;2022-10-04T10:29:20;15.90;99.90
16136;DHT22;8173;48.354;9.248;2022-10-04T10:32:06;15.80;99.90
16136;DHT22;8173;48.354;9.248;2022-10-04T10:37:46;16.10;99.90
16136;DHT22;8173;48.354;9.248;2022-10-04T10:40:30;16.40;99.90
16136;DHT22;8173;48.354;9.248;2022-10-04T10:43:21;16.40;99.90
16136;DHT22;8173;48.354;9.248;2022-10-04T10:46:03;16.70;99.90
16136;DHT22;8173;48.354;9.248;2022-10-04T10:48:52;16.80;99.90
16136;DHT22;8173;48.354;9.248;2022-10-04T10:51:45;17.20;99.90
16136;DHT22;8173;48.354;9.248;2022-10-04T10:54:47;17.40;99.90
16136;DHT22;8173;48.354;9.248;2022-10-04T10:57:32;17.40;99.90
16136;DHT22;8173;48.354;9.248;2022-10-04T11:00:18;17.80;99.90
16136;DHT22;8173;48.354;9.248;2022-10-04T11:03:19;17.70;99.90
16136;DHT22;8173;48.354;9.248;2022-10-04T11:09:28;18.00;99.90
16136;DHT22;8173;48.354;9.248;2022-10-04T11:12:26;18.00;99.90
16136;DHT22;8173;48.354;9.248;2022-10-04T11:18:06;18.20;99.90
16136;DHT22;8173;48.354;9.248;2022-10-04T11:21:17;18.00;99.90
16136;DHT22;8173;48.354;9.248;2022-10-04T11:24:19;17.90;99.90
16136;DHT22;8173;48.354;9.248;2022-10-04T11:30:08;18.10;99.90
16136;DHT22;8173;48.354;9.248;2022-10-04T11:35:52;18.40;99.90
16136;DHT22;8173;48.354;9.248;2022-10-04T11:38:50;18.40;99.90
16136;DHT22;8173;48.354;9.248;2022-10-04T11:41:24;18.20;99.90
16136;DHT22;8173;48.354;9.248;2022-10-04T11:44:28;18.20;99.90
16136;DHT22;8173;48.354;9.248;2022-10-04T11:47:04;17.90;99.90
16136;DHT22;8173;48.354;9.248;2022-10-04T11:49:48;17.80;99.90
16136;DHT22;8173;48.354;9.248;2022-10-04T11:52:51;18.20;99.90
16136;DHT22;8173;48.354;9.248;2022-10-04T11:55:40;19.60;99.90
16136;DHT22;8173;48.354;9.248;2022-10-04T11:58:15;18.20;99.90
16136;DHT22;8173;48.354;9.248;2022-10-04T12:01:03;18.20;99.90
16136;DHT22;8173;48.354;9.248;2022-10-04T12:03:52;18.30;99.90
16136;DHT22;8173;48.354;9.248;2022-10-04T12:06:35;18.60;99.90
16136;DHT22;8173;48.354;9.248;2022-10-04T12:09:15;18.70;99.90
16136;DHT22;8173;48.354;9.248;2022-10-04T12:12:01;18.90;99.90
16136;DHT22;8173;48.354;9.248;2022-10-04T12:15:01;18.90;99.90
16136;DHT22;8173;48.354;9.248;2022-10-04T12:18:02;18.40;99.90
16136;DHT22;8173;48.354;9.248;2022-10-04T12:21:28;18.30;99.90
16136;DHT22;8173;48.354;9.248;2022-10-04T12:24:06;18.10;99.90
16136;DHT22;8173;48.354;9.248;2022-10-04T12:30:12;18.30;99.90
16136;DHT22;8173;48.354;9.248;2022-10-04T12:32:54;19.00;99.90
16136;DHT22;8173;48.354;9.248;2022-10-04T12:35:34;18.90;99.90
16136;DHT22;8173;48.354;9.248;2022-10-04T12:38:17;19.00;99.90
16136;DHT22;8173;48.354;9.248;2022-10-04T12:40:55;19.00;99.90
16136;DHT22;8173;48.354;9.248;2022-10-04T12:43:32;19.00;99.90
16136;DHT22;8173;48.354;9.248;2022-10-04T12:46:14;19.00;99.90
16136;DHT22;8173;48.354;9.248;2022-10-04T12:48:49;18.90;99.90
16136;DHT22;8173;48.354;9.248;2022-10-04T12:51:30;18.90;99.90
16136;DHT22;8173;48.354;9.248;2022-10-04T12:54:15;18.90;99.90
16136;DHT22;8173;48.354;9.248;2022-10-04T12:56:50;19.20;99.90
16136;DHT22;8173;48.354;9.248;2022-10-04T12:59:35;19.60;99.90
16136;DHT22;8173;48.354;9.248;2022-10-04T13:02:15;19.60;99.90
16136;DHT22;8173;48.354;9.248;2022-10-04T13:04:48;19.40;99.90
16136;DHT22;8173;48.354;9.248;2022-10-04T13:07:36;19.30;99.90
16136;DHT22;8173;48.354;9.248;2022-10-04T13:10:28;19.30;99.90
16136;DHT22;8173;48.354;9.248;2022-10-04T13:13:25;19.20;99.90
16136;DHT22;8173;48.354;9.248;2022-10-04T13:16:04;19.10;99.90
16136;DHT22;8173;48.354;9.248;2022-10-04T13:18:38;19.00;99.90
16136;DHT22;8173;48.354;9.248;2022-10-04T13:21:09;19.00;99.90
16136;DHT22;8173;48.354;9.248;2022-10-04T13:23:53;18.70;99.90
16136;DHT22;8173;48.354;9.248;2022-10-04T13:26:32;18.70;99.90
16136;DHT22;8173;48.354;9.248;2022-10-04T13:29:06;18.80;99.90
16136;DHT22;8173;48.354;9.248;2022-10-04T13:31:40;20.30;99.90
16136;DHT22;8173;48.354;9.248;2022-10-04T13:34:19;18.90;99.90
16136;DHT22;8173;48.354;9.248;2022-10-04T13:37:05;18.90;99.90
16136;DHT22;8173;48.354;9.248;2022-10-04T13:40:06;19.00;99.90
16136;DHT22;8173;48.354;9.248;2022-10-04T13:42:56;19.20;99.90
16136;DHT22;8173;48.354;9.248;2022-10-04T13:45:33;19.10;99.90
16136;DHT22;8173;48.354;9.248;2022-10-04T13:48:16;19.20;99.90
16136;DHT22;8173;48.354;9.248;2022-10-04T13:51:13;19.20;99.90
16136;DHT22;8173;48.354;9.248;2022-10-04T13:53:48;19.00;99.90
16136;DHT22;8173;48.354;9.248;2022-10-04T13:56:55;19.00;99.90
16136;DHT22;8173;48.354;9.248;2022-10-04T13:59:29;19.30;99.90
16136;DHT22;8173;48.354;9.248;2022-10-04T14:02:31;19.30;99.90
16136;DHT22;8173;48.354;9.248;2022-10-04T14:11:07;19.30;99.90
16136;DHT22;8173;48.354;9.248;2022-10-04T14:14:15;19.20;99.90
16136;DHT22;8173;48.354;9.248;2022-10-04T14:17:10;19.20;99.90
16136;DHT22;8173;48.354;9.248;2022-10-04T14:23:04;18.90;99.90
16136;DHT22;8173;48.354;9.248;2022-10-04T14:25:59;19.00;99.90
16136;DHT22;8173;48.354;9.248;2022-10-04T14:29:03;18.90;99.90
16136;DHT22;8173;48.354;9.248;2022-10-04T14:31:50;18.70;99.90
16136;DHT22;8173;48.354;9.248;2022-10-04T14:34:48;18.50;99.90
16136;DHT22;8173;48.354;9.248;2022-10-04T14:37:47;18.80;99.90
16136;DHT22;8173;48.354;9.248;2022-10-04T14:40:46;18.40;99.90
16136;DHT22;8173;48.354;9.248;2022-10-04T14:46:24;18.40;99.90
16136;DHT22;8173;48.354;9.248;2022-10-04T14:49:08;18.40;99.90
16136;DHT22;8173;48.354;9.248;2022-10-04T14:51:49;18.20;99.90
16136;DHT22;8173;48.354;9.248;2022-10-04T14:54:32;17.90;99.90
16136;DHT22;8173;48.354;9.248;2022-10-04T14:57:08;17.80;99.90
16136;DHT22;8173;48.354;9.248;2022-10-04T15:03:04;17.50;99.90
16136;DHT22;8173;48.354;9.248;2022-10-04T15:05:44;17.20;99.90
16136;DHT22;8173;48.354;9.248;2022-10-04T15:11:39;17.10;99.90
16136;DHT22;8173;48.354;9.248;2022-10-04T15:14:29;16.80;99.90
16136;DHT22;8173;48.354;9.248;2022-10-04T15:17:03;16.70;99.90
16136;DHT22;8173;48.354;9.248;2022-10-04T15:19:32;16.60;99.90
16136;DHT22;8173;48.354;9.248;2022-10-04T15:22:06;16.50;99.90
16136;DHT22;8173;48.354;9.248;2022-10-04T15:24:45;16.10;99.90
16136;DHT22;8173;48.354;9.248;2022-10-04T15:27:37;16.10;99.90
16136;DHT22;8173;48.354;9.248;2022-10-04T15:33:12;15.80;99.90
16136;DHT22;8173;48.354;9.248;2022-10-04T15:36:02;15.80;99.90
16136;DHT22;8173;48.354;9.248;2022-10-04T15:38:34;15.70;99.90
16136;DHT22;8173;48.354;9.248;2022-10-04T15:41:07;15.70;99.90
16136;DHT22;8173;48.354;9.248;2022-10-04T15:43:41;15.50;99.90
16136;DHT22;8173;48.354;9.248;2022-10-04T15:46:40;15.40;99.90
16136;DHT22;8173;48.354;9.248;2022-10-04T15:49:24;15.20;99.90
16136;DHT22;8173;48.354;9.248;2022-10-04T15:52:17;15.10;99.90
16136;DHT22;8173;48.354;9.248;2022-10-04T15:55:15;15.00;99.90
16136;DHT22;8173;48.354;9.248;2022-10-04T15:58:07;14.80;99.90
16136;DHT22;8173;48.354;9.248;2022-10-04T16:00:47;14.60;99.90
16136;DHT22;8173;48.354;9.248;2022-10-04T16:03:29;14.60;99.90
16136;DHT22;8173;48.354;9.248;2022-10-04T16:06:04;14.50;99.90
16136;DHT22;8173;48.354;9.248;2022-10-04T16:08:58;14.40;99.90
16136;DHT22;8173;48.354;9.248;2022-10-04T16:11:36;14.40;99.90
16136;DHT22;8173;48.354;9.248;2022-10-04T16:14:32;14.30;99.90
16136;DHT22;8173;48.354;9.248;2022-10-04T16:20:17;14.00;99.90
16136;DHT22;8173;48.354;9.248;2022-10-04T16:23:23;14.00;99.90
16136;DHT22;8173;48.354;9.248;2022-10-04T16:25:51;13.90;99.90
16136;DHT22;8173;48.354;9.248;2022-10-04T16:28:38;13.80;99.90
16136;DHT22;8173;48.354;9.248;2022-10-04T16:31:37;13.70;99.90
16136;DHT22;8173;48.354;9.248;2022-10-04T16:37:13;13.60;99.90
16136;DHT22;8173;48.354;9.248;2022-10-04T16:39:50;13.50;99.90
16136;DHT22;8173;48.354;9.248;2022-10-04T16:42:46;13.40;99.90
16136;DHT22;8173;48.354;9.248;2022-10-04T16:45:37;13.20;99.90
16136;DHT22;8173;48.354;9.248;2022-10-04T16:48:20;13.10;99.90
16136;DHT22;8173;48.354;9.248;2022-10-04T16:51:03;12.80;99.90
16136;DHT22;8173;48.354;9.248;2022-10-04T16:53:42;12.80;99.90
16136;DHT22;8173;48.354;9.248;2022-10-04T16:56:14;12.60;99.90
16136;DHT22;8173;48.354;9.248;2022-10-04T16:58:51;12.50;99.90
16136;DHT22;8173;48.354;9.248;2022-10-04T17:04:32;12.20;99.90
16136;DHT22;8173;48.354;9.248;2022-10-04T17:07:13;12.10;99.90
16136;DHT22;8173;48.354;9.248;2022-10-04T17:09:48;12.10;99.90
16136;DHT22;8173;48.354;9.248;2022-10-04T17:12:20;12.00;99.90
16136;DHT22;8173;48.354;9.248;2022-10-04T17:14:56;12.20;99.90
16136;DHT22;8173;48.354;9.248;2022-10-04T17:17:34;11.80;99.90
16136;DHT22;8173;48.354;9.248;2022-10-04T17:20:16;11.80;99.90
16136;DHT22;8173;48.354;9.248;2022-10-04T17:22:52;11.70;99.90
16136;DHT22;8173;48.354;9.248;2022-10-04T17:25:30;11.70;99.90
16136;DHT22;8173;48.354;9.248;2022-10-04T17:28:10;11.60;99.90
16136;DHT22;8173;48.354;9.248;2022-10-04T17:30:45;11.40;99.90
16136;DHT22;8173;48.354;9.248;2022-10-04T17:33:40;11.40;99.90
16136;DHT22;8173;48.354;9.248;2022-10-04T17:36:33;11.10;99.90
16136;DHT22;8173;48.354;9.248;2022-10-04T17:39:15;11.10;99.90
16136;DHT22;8173;48.354;9.248;2022-10-04T17:41:58;11.00;99.90
16136;DHT22;8173;48.354;9.248;2022-10-04T17:44:39;11.00;99.90
16136;DHT22;8173;48.354;9.248;2022-10-04T17:47:12;10.90;99.90
16136;DHT22;8173;48.354;9.248;2022-10-04T17:49:51;11.30;99.90
16136;DHT22;8173;48.354;9.248;2022-10-04T17:52:41;10.70;99.90
16136;DHT22;8173;48.354;9.248;2022-10-04T17:55:35;10.70;99.90
16136;DHT22;8173;48.354;9.248;2022-10-04T17:58:14;10.70;99.90
16136;DHT22;8173;48.354;9.248;2022-10-04T18:00:49;10.60;99.90
16136;DHT22;8173;48.354;9.248;2022-10-04T18:03:18;10.50;99.90
16136;DHT22;8173;48.354;9.248;2022-10-04T18:05:50;10.50;99.90
16136;DHT22;8173;48.354;9.248;2022-10-04T18:08:24;10.40;99.90
16136;DHT22;8173;48.354;9.248;2022-10-04T18:10:56;10.40;99.90
16136;DHT22;8173;48.354;9.248;2022-10-04T18:13:29;10.30;99.90
16136;DHT22;8173;48.354;9.248;2022-10-04T18:16:03;10.20;99.90
16136;DHT22;8173;48.354;9.248;2022-10-04T18:18:38;10.10;99.90
16136;DHT22;8173;48.354;9.248;2022-10-04T18:21:18;10.00;99.90
16136;DHT22;8173;48.354;9.248;2022-10-04T18:23:52;9.80;99.90
16136;DHT22;8173;48.354;9.248;2022-10-04T18:26:20;9.80;99.90
16136;DHT22;8173;48.354;9.248;2022-10-04T18:28:49;9.70;99.90
16136;DHT22;8173;48.354;9.248;2022-10-04T18:31:28;9.80;99.90
16136;DHT22;8173;48.354;9.248;2022-10-04T18:33:56;9.80;99.90
16136;DHT22;8173;48.354;9.248;2022-10-04T18:36:27;10.20;99.90
16136;DHT22;8173;48.354;9.248;2022-10-04T18:39:03;9.90;99.90